Ocean King D — V7TV6 — position and weather

sailwx.info

Track history (hours):
 
Tides and Currents Weather Stations Pressure Air Temp Water Temp Dewpoint Dewpoint Depression Visibility Wind Speed Wind Dir Waves Ship Positions

Ocean King D

Last reported at 2014-Oct-14 08:29 UTC. Time now 2014-Nov-01 02:04 UTC.
Position N 35°59' W 005°31'.
Warning: this ship's position is 17 days out of date.

Length 190 m; draft 9.4 m.

Type: Cargo ship. MMSI: 538003892.

Date/timePositionNaut miles runAvg speedWind from/ knotsBaromVisibWave heightAir tempDewpointWater temp
2014-Oct-14 08:29N 35°59' W 005°31'8 9.1
2014-Oct-14 07:33N 36°02' W 005°21'10 9.7
2014-Oct-14 06:33N 36°04' W 005°09'37411.2
2014-Oct-12 21:04N 36°59' E 002°30'611.5
2014-Oct-12 20:33N 37°00' E 002°38'1111.0
2014-Oct-12 19:33N 37°02' E 002°51'2611.2
2014-Oct-12 17:10N 37°06' E 003°24'811.9
2014-Oct-12 16:31N 37°07' E 003°34'9412.9
2014-Oct-12 09:12N 37°19' E 005°31'1014.2
2014-Oct-12 08:29N 37°20' E 005°44'4113.6
2014-Oct-12 05:30N 37°24' E 006°35'1412.5
2014-Oct-12 04:20N 37°26' E 006°53'5312.9
2014-Oct-12 00:12N 37°32' E 007°60'913.3
2014-Oct-11 23:33N 37°33' E 008°11'1313.3
2014-Oct-11 22:33N 37°34' E 008°27'1313.1
2014-Oct-11 21:33N 37°36' E 008°44'1312.9
2014-Oct-11 20:33N 37°37' E 009°00'1312.8
2014-Oct-11 19:33N 37°38' E 009°16'1312.9
2014-Oct-11 18:33N 37°39' E 009°33'1312.8
2014-Oct-11 17:33N 37°39' E 009°49'1312.7
2014-Oct-11 16:33N 37°38' E 010°05'1612.8
2014-Oct-11 15:20N 37°37' E 010°24'1013.1
2014-Oct-11 14:32N 37°35' E 010°37'8113.2
2014-Oct-11 08:27N 37°04' E 012°11'1313.6
2014-Oct-11 07:30N 36°58' E 012°25'1313.7
2014-Oct-11 06:33N 36°52' E 012°39'2813.9
2014-Oct-11 04:33N 36°40' E 013°11'1714.0
2014-Oct-11 03:18N 36°32' E 013°30'1014.0
2014-Oct-11 02:33N 36°28' E 013°42'1414.0
2014-Oct-11 01:34N 36°21' E 013°57'2713.4
2014-Oct-10 23:34N 36°08' E 014°26'1613.0
2014-Oct-10 22:20N 35°57' E 014°41'6 7.5
2014-Oct-10 21:28N 35°53' E 014°47'0 0.0
2014-Oct-10 20:16N 35°53' E 014°47'0 0.0
2014-Oct-10 19:28N 35°53' E 014°47'0 0.0
2014-Oct-10 18:19N 35°53' E 014°47'0 0.0
2014-Oct-10 17:28N 35°53' E 014°47'0 0.1
2014-Oct-10 16:07N 35°53' E 014°47'0 0.0
2014-Oct-10 15:28N 35°53' E 014°47'0 0.0
2014-Oct-10 14:10N 35°53' E 014°47'1 0.5
2014-Oct-10 11:33N 35°52' E 014°47'  
2014-Oct-08 06:14N 33°07' E 028°54'10713.2
2014-Oct-07 22:11N 32°43' E 030°58'813.5
2014-Oct-07 21:33N 32°41' E 031°07'1413.6
2014-Oct-07 20:33N 32°38' E 031°23'1313.4
2014-Oct-07 19:33N 32°34' E 031°38'1313.1
2014-Oct-07 18:33N 32°31' E 031°53'1313.0
2014-Oct-07 17:33N 32°28' E 032°08'1313.0
2014-Oct-07 16:33N 32°25' E 032°24'1312.8
2014-Oct-07 15:33N 32°23' E 032°38'3313.3
2014-Oct-07 13:03N 32°16' E 033°17'714.0
2014-Oct-07 12:33N 32°14' E 033°25'1614.3
2014-Oct-07 11:25N 32°10' E 033°44'1314.1
2014-Oct-07 10:30N 32°05' E 033°58'1413.9
2014-Oct-07 09:32N 31°60' E 034°12'1413.5
2014-Oct-07 08:28N 31°54' E 034°27'  
Track history (hours):
 
Tides and Currents Weather Stations Pressure Air Temp Water Temp Dewpoint Dewpoint Depression Visibility Wind Speed Wind Dir Waves Ship Positions

Ocean King D

Last reported at 2014-Oct-14 08:29 UTC. Time now 2014-Nov-01 02:04 UTC.
Position N 35°59' W 005°31'.
Warning: this ship's position is 17 days out of date.

Length 190 m; draft 9.4 m.

Type: Cargo ship. MMSI: 538003892.

Date/timePositionNaut miles runAvg speedWind from/ knotsBaromVisibWave heightAir tempDewpointWater temp
2014-Oct-14 08:29N 35°59' W 005°31'8 9.1
2014-Oct-14 07:33N 36°02' W 005°21'10 9.7
2014-Oct-14 06:33N 36°04' W 005°09'37411.2
2014-Oct-12 21:04N 36°59' E 002°30'611.5
2014-Oct-12 20:33N 37°00' E 002°38'1111.0
2014-Oct-12 19:33N 37°02' E 002°51'2611.2
2014-Oct-12 17:10N 37°06' E 003°24'811.9
2014-Oct-12 16:31N 37°07' E 003°34'9412.9
2014-Oct-12 09:12N 37°19' E 005°31'1014.2
2014-Oct-12 08:29N 37°20' E 005°44'4113.6
2014-Oct-12 05:30N 37°24' E 006°35'1412.5
2014-Oct-12 04:20N 37°26' E 006°53'5312.9
2014-Oct-12 00:12N 37°32' E 007°60'913.3
2014-Oct-11 23:33N 37°33' E 008°11'1313.3
2014-Oct-11 22:33N 37°34' E 008°27'1313.1
2014-Oct-11 21:33N 37°36' E 008°44'1312.9
2014-Oct-11 20:33N 37°37' E 009°00'1312.8
2014-Oct-11 19:33N 37°38' E 009°16'1312.9
2014-Oct-11 18:33N 37°39' E 009°33'1312.8
2014-Oct-11 17:33N 37°39' E 009°49'1312.7
2014-Oct-11 16:33N 37°38' E 010°05'1612.8
2014-Oct-11 15:20N 37°37' E 010°24'1013.1
2014-Oct-11 14:32N 37°35' E 010°37'8113.2
2014-Oct-11 08:27N 37°04' E 012°11'1313.6
2014-Oct-11 07:30N 36°58' E 012°25'1313.7
2014-Oct-11 06:33N 36°52' E 012°39'2813.9
2014-Oct-11 04:33N 36°40' E 013°11'1714.0
2014-Oct-11 03:18N 36°32' E 013°30'1014.0
2014-Oct-11 02:33N 36°28' E 013°42'1414.0
2014-Oct-11 01:34N 36°21' E 013°57'2713.4
2014-Oct-10 23:34N 36°08' E 014°26'1613.0
2014-Oct-10 22:20N 35°57' E 014°41'6 7.5
2014-Oct-10 21:28N 35°53' E 014°47'0 0.0
2014-Oct-10 20:16N 35°53' E 014°47'0 0.0
2014-Oct-10 19:28N 35°53' E 014°47'0 0.0
2014-Oct-10 18:19N 35°53' E 014°47'0 0.0
2014-Oct-10 17:28N 35°53' E 014°47'0 0.1
2014-Oct-10 16:07N 35°53' E 014°47'0 0.0
2014-Oct-10 15:28N 35°53' E 014°47'0 0.0
2014-Oct-10 14:10N 35°53' E 014°47'1 0.5
2014-Oct-10 11:33N 35°52' E 014°47'  
2014-Oct-08 06:14N 33°07' E 028°54'10713.2
2014-Oct-07 22:11N 32°43' E 030°58'813.5
2014-Oct-07 21:33N 32°41' E 031°07'1413.6
2014-Oct-07 20:33N 32°38' E 031°23'1313.4
2014-Oct-07 19:33N 32°34' E 031°38'1313.1
2014-Oct-07 18:33N 32°31' E 031°53'1313.0
2014-Oct-07 17:33N 32°28' E 032°08'1313.0
2014-Oct-07 16:33N 32°25' E 032°24'1312.8
2014-Oct-07 15:33N 32°23' E 032°38'3313.3
2014-Oct-07 13:03N 32°16' E 033°17'714.0
2014-Oct-07 12:33N 32°14' E 033°25'1614.3
2014-Oct-07 11:25N 32°10' E 033°44'1314.1
2014-Oct-07 10:30N 32°05' E 033°58'1413.9
2014-Oct-07 09:32N 31°60' E 034°12'1413.5
2014-Oct-07 08:28N 31°54' E 034°27'  

Dump ship's entire track history